Terminal Aerodrome Forecast
Issued by NWS

Home | Current Version | Previous Version | Graphics & Text | Print | Product List | Glossary On
Versions: 1 2 3 4 5 6 7 8 9 10 11 12 13 14 15 16
000
FTUS45 KGGW 160500
TAFOLF
TAF
KOLF 160520Z 1606/1706 04012KT P6SM VCSH BKN100
     FM161200 05011KT P6SM OVC022
     FM161800 09010KT P6SM OVC050=

USA.gov is the U.S. government's official web portal to all federal, state and local government web resources and services.